sensor_id;sensor_type;location;lat;lon;timestamp;P1;durP1;ratioP1;P2;durP2;ratioP2
209;SDS011;90;48.810;9.120;2023-07-30T00:01:07;3.77;;;3.57;;
209;SDS011;90;48.810;9.120;2023-07-30T00:03:35;3.50;;;3.30;;
209;SDS011;90;48.810;9.120;2023-07-30T00:06:03;6.57;;;2.80;;
209;SDS011;90;48.810;9.120;2023-07-30T00:08:31;3.53;;;3.33;;
209;SDS011;90;48.810;9.120;2023-07-30T00:10:58;3.90;;;2.95;;
209;SDS011;90;48.810;9.120;2023-07-30T00:13:25;2.97;;;2.77;;
209;SDS011;90;48.810;9.120;2023-07-30T00:15:52;4.13;;;3.07;;
209;SDS011;90;48.810;9.120;2023-07-30T00:18:19;3.83;;;3.00;;
209;SDS011;90;48.810;9.120;2023-07-30T00:20:48;2.97;;;2.77;;
209;SDS011;90;48.810;9.120;2023-07-30T00:23:15;3.40;;;2.97;;
209;SDS011;90;48.810;9.120;2023-07-30T00:25:42;2.97;;;2.30;;
209;SDS011;90;48.810;9.120;2023-07-30T00:28:09;2.50;;;2.40;;
209;SDS011;90;48.810;9.120;2023-07-30T00:30:36;3.27;;;3.07;;
209;SDS011;90;48.810;9.120;2023-07-30T00:33:03;3.20;;;3.00;;
209;SDS011;90;48.810;9.120;2023-07-30T00:35:31;3.17;;;2.97;;
209;SDS011;90;48.810;9.120;2023-07-30T00:38:00;3.40;;;2.97;;
209;SDS011;90;48.810;9.120;2023-07-30T00:40:27;3.33;;;3.13;;
209;SDS011;90;48.810;9.120;2023-07-30T00:42:54;3.70;;;3.50;;
209;SDS011;90;48.810;9.120;2023-07-30T00:45:21;4.50;;;4.20;;
209;SDS011;90;48.810;9.120;2023-07-30T00:47:48;3.73;;;3.17;;
209;SDS011;90;48.810;9.120;2023-07-30T00:50:15;3.47;;;3.27;;
209;SDS011;90;48.810;9.120;2023-07-30T00:52:43;3.70;;;3.50;;
209;SDS011;90;48.810;9.120;2023-07-30T00:55:12;3.73;;;3.53;;
209;SDS011;90;48.810;9.120;2023-07-30T00:57:40;3.73;;;3.53;;
209;SDS011;90;48.810;9.120;2023-07-30T01:00:10;3.80;;;3.60;;
209;SDS011;90;48.810;9.120;2023-07-30T01:02:38;3.83;;;3.63;;
209;SDS011;90;48.810;9.120;2023-07-30T01:05:05;3.80;;;3.60;;
209;SDS011;90;48.810;9.120;2023-07-30T01:07:32;4.57;;;4.27;;
209;SDS011;90;48.810;9.120;2023-07-30T01:10:00;4.33;;;4.07;;
209;SDS011;90;48.810;9.120;2023-07-30T01:12:29;4.70;;;4.40;;
209;SDS011;90;48.810;9.120;2023-07-30T01:14:57;4.47;;;4.17;;
209;SDS011;90;48.810;9.120;2023-07-30T01:17:25;5.10;;;4.80;;
209;SDS011;90;48.810;9.120;2023-07-30T01:19:53;5.13;;;4.53;;
209;SDS011;90;48.810;9.120;2023-07-30T01:22:22;5.10;;;4.80;;
209;SDS011;90;48.810;9.120;2023-07-30T01:24:49;5.23;;;4.93;;
209;SDS011;90;48.810;9.120;2023-07-30T01:27:19;5.13;;;4.83;;
209;SDS011;90;48.810;9.120;2023-07-30T01:29:51;5.73;;;5.43;;
209;SDS011;90;48.810;9.120;2023-07-30T01:32:20;4.90;;;4.60;;
209;SDS011;90;48.810;9.120;2023-07-30T01:34:51;11.50;;;5.20;;
209;SDS011;90;48.810;9.120;2023-07-30T01:37:19;8.23;;;5.10;;
209;SDS011;90;48.810;9.120;2023-07-30T01:39:48;5.60;;;5.30;;
209;SDS011;90;48.810;9.120;2023-07-30T01:42:16;4.93;;;4.60;;
209;SDS011;90;48.810;9.120;2023-07-30T01:44:43;5.13;;;4.80;;
209;SDS011;90;48.810;9.120;2023-07-30T01:47:10;5.93;;;5.63;;
209;SDS011;90;48.810;9.120;2023-07-30T01:49:37;5.63;;;5.33;;
209;SDS011;90;48.810;9.120;2023-07-30T01:52:05;5.03;;;4.73;;
209;SDS011;90;48.810;9.120;2023-07-30T01:54:32;4.97;;;4.67;;
209;SDS011;90;48.810;9.120;2023-07-30T01:57:00;4.80;;;4.50;;
209;SDS011;90;48.810;9.120;2023-07-30T01:59:28;5.13;;;4.83;;
209;SDS011;90;48.810;9.120;2023-07-30T02:01:55;5.63;;;5.33;;
209;SDS011;90;48.810;9.120;2023-07-30T02:04:22;5.27;;;4.97;;
209;SDS011;90;48.810;9.120;2023-07-30T02:06:49;5.40;;;5.10;;
209;SDS011;90;48.810;9.120;2023-07-30T02:09:16;5.67;;;5.37;;
209;SDS011;90;48.810;9.120;2023-07-30T02:11:43;5.00;;;4.70;;
209;SDS011;90;48.810;9.120;2023-07-30T02:14:12;4.80;;;4.50;;
209;SDS011;90;48.810;9.120;2023-07-30T02:16:39;5.40;;;5.10;;
209;SDS011;90;48.810;9.120;2023-07-30T02:19:06;4.90;;;4.40;;
209;SDS011;90;48.810;9.120;2023-07-30T02:21:33;5.20;;;4.90;;
209;SDS011;90;48.810;9.120;2023-07-30T02:24:02;4.40;;;4.10;;
209;SDS011;90;48.810;9.120;2023-07-30T02:26:29;4.23;;;3.97;;
209;SDS011;90;48.810;9.120;2023-07-30T02:28:56;4.73;;;4.43;;
209;SDS011;90;48.810;9.120;2023-07-30T02:31:26;4.57;;;4.27;;
209;SDS011;90;48.810;9.120;2023-07-30T02:33:53;5.20;;;4.90;;
209;SDS011;90;48.810;9.120;2023-07-30T02:36:20;6.00;;;5.20;;
209;SDS011;90;48.810;9.120;2023-07-30T02:38:48;4.60;;;4.30;;
209;SDS011;90;48.810;9.120;2023-07-30T02:41:15;3.90;;;3.70;;
209;SDS011;90;48.810;9.120;2023-07-30T02:43:43;4.10;;;3.90;;
209;SDS011;90;48.810;9.120;2023-07-30T02:46:12;4.83;;;4.53;;
209;SDS011;90;48.810;9.120;2023-07-30T02:48:40;3.90;;;3.70;;
209;SDS011;90;48.810;9.120;2023-07-30T02:51:07;4.60;;;4.30;;
209;SDS011;90;48.810;9.120;2023-07-30T02:53:34;4.77;;;4.47;;
209;SDS011;90;48.810;9.120;2023-07-30T02:56:03;4.70;;;4.40;;
209;SDS011;90;48.810;9.120;2023-07-30T02:58:30;5.20;;;4.00;;
209;SDS011;90;48.810;9.120;2023-07-30T03:01:04;4.70;;;4.40;;
209;SDS011;90;48.810;9.120;2023-07-30T03:03:31;4.73;;;4.43;;
209;SDS011;90;48.810;9.120;2023-07-30T03:06:00;4.40;;;4.10;;
209;SDS011;90;48.810;9.120;2023-07-30T03:08:27;5.30;;;5.00;;
209;SDS011;90;48.810;9.120;2023-07-30T03:10:57;5.23;;;4.93;;
209;SDS011;90;48.810;9.120;2023-07-30T03:13:24;5.40;;;5.10;;
209;SDS011;90;48.810;9.120;2023-07-30T03:15:51;5.30;;;5.00;;
209;SDS011;90;48.810;9.120;2023-07-30T03:18:18;5.60;;;4.70;;
209;SDS011;90;48.810;9.120;2023-07-30T03:20:45;5.20;;;4.90;;
209;SDS011;90;48.810;9.120;2023-07-30T03:23:14;5.30;;;5.00;;
209;SDS011;90;48.810;9.120;2023-07-30T03:25:43;5.40;;;5.10;;
209;SDS011;90;48.810;9.120;2023-07-30T03:28:10;6.10;;;5.43;;
209;SDS011;90;48.810;9.120;2023-07-30T03:30:37;5.10;;;4.80;;
209;SDS011;90;48.810;9.120;2023-07-30T03:33:04;5.50;;;5.20;;
209;SDS011;90;48.810;9.120;2023-07-30T03:35:32;4.87;;;4.57;;
209;SDS011;90;48.810;9.120;2023-07-30T03:37:59;5.30;;;5.00;;
209;SDS011;90;48.810;9.120;2023-07-30T03:40:27;5.40;;;5.10;;
209;SDS011;90;48.810;9.120;2023-07-30T03:42:55;4.80;;;4.50;;
209;SDS011;90;48.810;9.120;2023-07-30T03:45:22;5.00;;;4.70;;
209;SDS011;90;48.810;9.120;2023-07-30T03:47:49;5.13;;;4.83;;
209;SDS011;90;48.810;9.120;2023-07-30T03:50:16;5.50;;;5.20;;
209;SDS011;90;48.810;9.120;2023-07-30T03:52:43;5.20;;;4.90;;
209;SDS011;90;48.810;9.120;2023-07-30T03:55:11;5.83;;;5.10;;
209;SDS011;90;48.810;9.120;2023-07-30T03:57:39;5.10;;;4.77;;
209;SDS011;90;48.810;9.120;2023-07-30T04:00:07;4.70;;;4.40;;
209;SDS011;90;48.810;9.120;2023-07-30T04:02:34;5.30;;;5.00;;
209;SDS011;90;48.810;9.120;2023-07-30T04:05:01;5.10;;;4.80;;
209;SDS011;90;48.810;9.120;2023-07-30T04:07:28;5.60;;;5.00;;
209;SDS011;90;48.810;9.120;2023-07-30T04:09:55;4.63;;;4.30;;
209;SDS011;90;48.810;9.120;2023-07-30T04:12:22;5.40;;;5.10;;
209;SDS011;90;48.810;9.120;2023-07-30T04:14:51;5.27;;;4.97;;
209;SDS011;90;48.810;9.120;2023-07-30T04:17:18;4.93;;;4.63;;
209;SDS011;90;48.810;9.120;2023-07-30T04:19:45;5.10;;;4.80;;
209;SDS011;90;48.810;9.120;2023-07-30T04:22:12;5.30;;;4.63;;
209;SDS011;90;48.810;9.120;2023-07-30T04:24:40;7.00;;;4.40;;
209;SDS011;90;48.810;9.120;2023-07-30T04:27:07;4.10;;;3.90;;
209;SDS011;90;48.810;9.120;2023-07-30T04:29:34;4.50;;;4.20;;
209;SDS011;90;48.810;9.120;2023-07-30T04:32:02;5.03;;;4.73;;
209;SDS011;90;48.810;9.120;2023-07-30T04:34:30;4.80;;;4.50;;
209;SDS011;90;48.810;9.120;2023-07-30T04:36:57;4.53;;;4.23;;
209;SDS011;90;48.810;9.120;2023-07-30T04:39:24;4.47;;;4.17;;
209;SDS011;90;48.810;9.120;2023-07-30T04:41:51;4.33;;;4.03;;
209;SDS011;90;48.810;9.120;2023-07-30T04:44:18;4.70;;;4.40;;
209;SDS011;90;48.810;9.120;2023-07-30T04:46:45;4.10;;;3.90;;
209;SDS011;90;48.810;9.120;2023-07-30T04:49:14;4.30;;;4.00;;
209;SDS011;90;48.810;9.120;2023-07-30T04:51:42;4.10;;;3.90;;
209;SDS011;90;48.810;9.120;2023-07-30T04:54:09;8.10;;;4.40;;
209;SDS011;90;48.810;9.120;2023-07-30T04:56:36;4.97;;;4.67;;
209;SDS011;90;48.810;9.120;2023-07-30T04:59:04;4.60;;;4.30;;
209;SDS011;90;48.810;9.120;2023-07-30T05:01:31;6.20;;;4.90;;
209;SDS011;90;48.810;9.120;2023-07-30T05:03:58;4.67;;;4.37;;
209;SDS011;90;48.810;9.120;2023-07-30T05:06:26;4.43;;;4.10;;
209;SDS011;90;48.810;9.120;2023-07-30T05:08:53;4.65;;;4.35;;
209;SDS011;90;48.810;9.120;2023-07-30T05:11:21;4.80;;;4.50;;
209;SDS011;90;48.810;9.120;2023-07-30T05:13:48;4.83;;;4.53;;
209;SDS011;90;48.810;9.120;2023-07-30T05:16:15;5.00;;;4.03;;
209;SDS011;90;48.810;9.120;2023-07-30T05:18:42;4.63;;;4.17;;
209;SDS011;90;48.810;9.120;2023-07-30T05:21:09;4.93;;;4.63;;
209;SDS011;90;48.810;9.120;2023-07-30T05:23:38;4.03;;;3.83;;
209;SDS011;90;48.810;9.120;2023-07-30T05:26:05;5.40;;;5.13;;
209;SDS011;90;48.810;9.120;2023-07-30T05:28:32;4.77;;;4.47;;
209;SDS011;90;48.810;9.120;2023-07-30T05:30:59;4.60;;;4.30;;
209;SDS011;90;48.810;9.120;2023-07-30T05:33:26;4.10;;;3.90;;
209;SDS011;90;48.810;9.120;2023-07-30T05:35:53;4.40;;;4.10;;
209;SDS011;90;48.810;9.120;2023-07-30T05:38:23;4.03;;;3.87;;
209;SDS011;90;48.810;9.120;2023-07-30T05:40:51;4.40;;;4.10;;
209;SDS011;90;48.810;9.120;2023-07-30T05:43:18;4.80;;;4.50;;
209;SDS011;90;48.810;9.120;2023-07-30T05:45:46;4.47;;;4.17;;
209;SDS011;90;48.810;9.120;2023-07-30T05:48:13;4.37;;;4.07;;
209;SDS011;90;48.810;9.120;2023-07-30T05:50:40;4.47;;;4.17;;
209;SDS011;90;48.810;9.120;2023-07-30T05:53:07;4.50;;;4.20;;
209;SDS011;90;48.810;9.120;2023-07-30T05:55:34;4.23;;;3.97;;
209;SDS011;90;48.810;9.120;2023-07-30T05:58:03;4.53;;;4.23;;
209;SDS011;90;48.810;9.120;2023-07-30T06:00:30;4.57;;;4.27;;
209;SDS011;90;48.810;9.120;2023-07-30T06:02:57;5.17;;;4.30;;
209;SDS011;90;48.810;9.120;2023-07-30T06:05:24;4.47;;;4.17;;
209;SDS011;90;48.810;9.120;2023-07-30T06:07:51;4.50;;;4.20;;
209;SDS011;90;48.810;9.120;2023-07-30T06:10:18;4.30;;;3.83;;
209;SDS011;90;48.810;9.120;2023-07-30T06:12:46;5.67;;;3.60;;
209;SDS011;90;48.810;9.120;2023-07-30T06:15:14;3.80;;;3.60;;
209;SDS011;90;48.810;9.120;2023-07-30T06:17:41;3.97;;;3.77;;
209;SDS011;90;48.810;9.120;2023-07-30T06:20:09;3.70;;;3.50;;
209;SDS011;90;48.810;9.120;2023-07-30T06:22:36;4.33;;;4.03;;
209;SDS011;90;48.810;9.120;2023-07-30T06:25:04;4.97;;;4.67;;
209;SDS011;90;48.810;9.120;2023-07-30T06:27:31;4.33;;;4.03;;
209;SDS011;90;48.810;9.120;2023-07-30T06:29:58;4.60;;;4.30;;
209;SDS011;90;48.810;9.120;2023-07-30T06:32:26;5.07;;;4.77;;
209;SDS011;90;48.810;9.120;2023-07-30T06:34:54;5.40;;;5.10;;
209;SDS011;90;48.810;9.120;2023-07-30T06:37:21;4.37;;;4.07;;
209;SDS011;90;48.810;9.120;2023-07-30T06:39:48;5.03;;;4.73;;
209;SDS011;90;48.810;9.120;2023-07-30T06:42:15;5.60;;;5.30;;
209;SDS011;90;48.810;9.120;2023-07-30T06:44:42;4.63;;;4.33;;
209;SDS011;90;48.810;9.120;2023-07-30T06:47:10;4.80;;;4.50;;
209;SDS011;90;48.810;9.120;2023-07-30T06:49:38;4.80;;;4.50;;
209;SDS011;90;48.810;9.120;2023-07-30T06:52:08;4.90;;;4.60;;
209;SDS011;90;48.810;9.120;2023-07-30T06:54:35;5.40;;;4.67;;
209;SDS011;90;48.810;9.120;2023-07-30T06:57:03;4.60;;;4.30;;
209;SDS011;90;48.810;9.120;2023-07-30T06:59:30;4.67;;;4.37;;
209;SDS011;90;48.810;9.120;2023-07-30T07:01:57;4.40;;;4.10;;
209;SDS011;90;48.810;9.120;2023-07-30T07:04:24;4.37;;;4.07;;
209;SDS011;90;48.810;9.120;2023-07-30T07:06:53;4.50;;;4.20;;
209;SDS011;90;48.810;9.120;2023-07-30T07:09:20;4.37;;;4.07;;
209;SDS011;90;48.810;9.120;2023-07-30T07:11:47;4.50;;;4.20;;
209;SDS011;90;48.810;9.120;2023-07-30T07:14:14;4.80;;;4.50;;
209;SDS011;90;48.810;9.120;2023-07-30T07:16:42;6.00;;;4.40;;
209;SDS011;90;48.810;9.120;2023-07-30T07:19:09;3.60;;;3.40;;
209;SDS011;90;48.810;9.120;2023-07-30T07:21:36;4.07;;;3.87;;
209;SDS011;90;48.810;9.120;2023-07-30T07:24:04;3.67;;;3.47;;
209;SDS011;90;48.810;9.120;2023-07-30T07:26:34;4.43;;;4.13;;
209;SDS011;90;48.810;9.120;2023-07-30T07:29:01;4.03;;;3.83;;
209;SDS011;90;48.810;9.120;2023-07-30T07:31:28;3.80;;;3.60;;
209;SDS011;90;48.810;9.120;2023-07-30T07:33:55;3.63;;;3.43;;
209;SDS011;90;48.810;9.120;2023-07-30T07:36:22;4.43;;;4.13;;
209;SDS011;90;48.810;9.120;2023-07-30T07:38:49;4.60;;;4.30;;
209;SDS011;90;48.810;9.120;2023-07-30T07:41:18;3.97;;;3.77;;
209;SDS011;90;48.810;9.120;2023-07-30T07:43:48;4.37;;;4.07;;
209;SDS011;90;48.810;9.120;2023-07-30T07:46:17;3.90;;;3.70;;
209;SDS011;90;48.810;9.120;2023-07-30T07:48:44;4.07;;;3.87;;
209;SDS011;90;48.810;9.120;2023-07-30T07:51:12;3.87;;;3.67;;
209;SDS011;90;48.810;9.120;2023-07-30T07:53:39;3.70;;;3.50;;
209;SDS011;90;48.810;9.120;2023-07-30T07:56:06;3.87;;;3.67;;
209;SDS011;90;48.810;9.120;2023-07-30T07:58:35;3.63;;;3.43;;
209;SDS011;90;48.810;9.120;2023-07-30T08:01:02;4.10;;;3.90;;
209;SDS011;90;48.810;9.120;2023-07-30T08:03:29;3.87;;;3.67;;
209;SDS011;90;48.810;9.120;2023-07-30T08:05:56;3.97;;;3.77;;
209;SDS011;90;48.810;9.120;2023-07-30T08:08:24;4.30;;;4.00;;
209;SDS011;90;48.810;9.120;2023-07-30T08:10:51;4.10;;;3.90;;
209;SDS011;90;48.810;9.120;2023-07-30T08:13:18;4.27;;;4.00;;
209;SDS011;90;48.810;9.120;2023-07-30T08:15:49;4.50;;;4.20;;
209;SDS011;90;48.810;9.120;2023-07-30T08:18:17;3.87;;;3.67;;
209;SDS011;90;48.810;9.120;2023-07-30T08:20:44;4.40;;;4.10;;
209;SDS011;90;48.810;9.120;2023-07-30T08:23:11;4.23;;;3.97;;
209;SDS011;90;48.810;9.120;2023-07-30T08:25:39;4.70;;;4.40;;
209;SDS011;90;48.810;9.120;2023-07-30T08:28:06;4.50;;;4.20;;
209;SDS011;90;48.810;9.120;2023-07-30T08:30:33;3.30;;;3.10;;
209;SDS011;90;48.810;9.120;2023-07-30T08:33:02;4.43;;;4.13;;
209;SDS011;90;48.810;9.120;2023-07-30T08:35:29;4.50;;;3.97;;
209;SDS011;90;48.810;9.120;2023-07-30T08:37:56;4.23;;;3.97;;
209;SDS011;90;48.810;9.120;2023-07-30T08:40:23;4.37;;;4.07;;
209;SDS011;90;48.810;9.120;2023-07-30T08:42:50;4.67;;;4.37;;
209;SDS011;90;48.810;9.120;2023-07-30T08:45:18;4.30;;;4.00;;
209;SDS011;90;48.810;9.120;2023-07-30T08:47:45;4.77;;;4.47;;
209;SDS011;90;48.810;9.120;2023-07-30T08:50:14;4.83;;;4.57;;
209;SDS011;90;48.810;9.120;2023-07-30T08:52:41;4.00;;;3.40;;
209;SDS011;90;48.810;9.120;2023-07-30T08:55:09;6.80;;;4.53;;
209;SDS011;90;48.810;9.120;2023-07-30T08:57:37;4.53;;;4.23;;
209;SDS011;90;48.810;9.120;2023-07-30T09:00:05;5.07;;;4.73;;
209;SDS011;90;48.810;9.120;2023-07-30T09:02:34;4.40;;;4.10;;
209;SDS011;90;48.810;9.120;2023-07-30T09:05:01;4.80;;;4.50;;
209;SDS011;90;48.810;9.120;2023-07-30T09:07:30;3.88;;;3.50;;
209;SDS011;90;48.810;9.120;2023-07-30T09:09:58;4.83;;;4.53;;
209;SDS011;90;48.810;9.120;2023-07-30T09:12:25;4.30;;;4.03;;
209;SDS011;90;48.810;9.120;2023-07-30T09:14:53;4.67;;;4.37;;
209;SDS011;90;48.810;9.120;2023-07-30T09:17:20;4.60;;;4.30;;
209;SDS011;90;48.810;9.120;2023-07-30T09:19:47;4.60;;;4.30;;
209;SDS011;90;48.810;9.120;2023-07-30T09:22:19;4.07;;;3.87;;
209;SDS011;90;48.810;9.120;2023-07-30T09:24:47;5.47;;;4.93;;
209;SDS011;90;48.810;9.120;2023-07-30T09:27:19;4.63;;;4.33;;
209;SDS011;90;48.810;9.120;2023-07-30T09:29:49;4.57;;;4.27;;
209;SDS011;90;48.810;9.120;2023-07-30T09:32:19;4.67;;;4.37;;
209;SDS011;90;48.810;9.120;2023-07-30T09:34:48;4.53;;;4.23;;
209;SDS011;90;48.810;9.120;2023-07-30T09:37:15;4.67;;;4.37;;
209;SDS011;90;48.810;9.120;2023-07-30T09:39:42;4.53;;;4.23;;
209;SDS011;90;48.810;9.120;2023-07-30T09:42:11;4.67;;;4.37;;
209;SDS011;90;48.810;9.120;2023-07-30T09:44:38;4.83;;;4.53;;
209;SDS011;90;48.810;9.120;2023-07-30T09:47:08;4.53;;;4.23;;
209;SDS011;90;48.810;9.120;2023-07-30T09:49:36;5.83;;;4.37;;
209;SDS011;90;48.810;9.120;2023-07-30T09:52:03;4.90;;;4.60;;
209;SDS011;90;48.810;9.120;2023-07-30T09:54:31;4.50;;;4.20;;
209;SDS011;90;48.810;9.120;2023-07-30T09:56:58;4.67;;;4.37;;
209;SDS011;90;48.810;9.120;2023-07-30T09:59:27;5.27;;;4.97;;
209;SDS011;90;48.810;9.120;2023-07-30T10:01:54;6.00;;;4.53;;
209;SDS011;90;48.810;9.120;2023-07-30T10:04:22;5.43;;;5.13;;
209;SDS011;90;48.810;9.120;2023-07-30T10:06:51;4.70;;;4.40;;
209;SDS011;90;48.810;9.120;2023-07-30T10:09:19;8.43;;;4.90;;
209;SDS011;90;48.810;9.120;2023-07-30T10:11:48;4.97;;;4.67;;
209;SDS011;90;48.810;9.120;2023-07-30T10:14:16;5.03;;;4.73;;
209;SDS011;90;48.810;9.120;2023-07-30T10:16:50;4.77;;;4.47;;
209;SDS011;90;48.810;9.120;2023-07-30T10:19:18;5.10;;;4.80;;
209;SDS011;90;48.810;9.120;2023-07-30T10:21:48;5.07;;;4.05;;
209;SDS011;90;48.810;9.120;2023-07-30T10:24:17;5.37;;;5.00;;
209;SDS011;90;48.810;9.120;2023-07-30T10:26:44;4.87;;;4.57;;
209;SDS011;90;48.810;9.120;2023-07-30T10:29:12;5.00;;;4.70;;
209;SDS011;90;48.810;9.120;2023-07-30T10:31:39;5.17;;;4.87;;
209;SDS011;90;48.810;9.120;2023-07-30T10:34:08;5.37;;;5.07;;
209;SDS011;90;48.810;9.120;2023-07-30T10:36:42;4.90;;;4.60;;
209;SDS011;90;48.810;9.120;2023-07-30T10:39:12;4.93;;;4.63;;
209;SDS011;90;48.810;9.120;2023-07-30T10:41:39;5.60;;;5.13;;
209;SDS011;90;48.810;9.120;2023-07-30T10:44:06;5.17;;;4.90;;
209;SDS011;90;48.810;9.120;2023-07-30T10:46:33;6.33;;;5.10;;
209;SDS011;90;48.810;9.120;2023-07-30T10:49:03;5.37;;;5.07;;
209;SDS011;90;48.810;9.120;2023-07-30T10:51:32;4.60;;;4.30;;
209;SDS011;90;48.810;9.120;2023-07-30T10:54:00;4.87;;;4.57;;
209;SDS011;90;48.810;9.120;2023-07-30T10:56:27;5.57;;;5.27;;
209;SDS011;90;48.810;9.120;2023-07-30T10:58:54;6.33;;;4.43;;
209;SDS011;90;48.810;9.120;2023-07-30T11:01:23;5.10;;;4.80;;
209;SDS011;90;48.810;9.120;2023-07-30T11:03:51;5.60;;;5.30;;
209;SDS011;90;48.810;9.120;2023-07-30T11:06:22;4.97;;;4.67;;
209;SDS011;90;48.810;9.120;2023-07-30T11:08:50;7.03;;;4.67;;
209;SDS011;90;48.810;9.120;2023-07-30T11:11:18;4.90;;;4.60;;
209;SDS011;90;48.810;9.120;2023-07-30T11:13:45;5.90;;;4.87;;
209;SDS011;90;48.810;9.120;2023-07-30T11:16:13;4.97;;;4.60;;
209;SDS011;90;48.810;9.120;2023-07-30T11:18:40;5.83;;;4.97;;
209;SDS011;90;48.810;9.120;2023-07-30T11:21:08;7.93;;;4.60;;
209;SDS011;90;48.810;9.120;2023-07-30T11:23:36;5.67;;;5.17;;
209;SDS011;90;48.810;9.120;2023-07-30T11:26:05;4.93;;;4.63;;
209;SDS011;90;48.810;9.120;2023-07-30T11:28:33;4.93;;;4.63;;
209;SDS011;90;48.810;9.120;2023-07-30T11:31:01;5.60;;;5.30;;
209;SDS011;90;48.810;9.120;2023-07-30T11:33:28;6.70;;;5.33;;
209;SDS011;90;48.810;9.120;2023-07-30T11:35:56;5.23;;;4.93;;
209;SDS011;90;48.810;9.120;2023-07-30T11:38:23;5.63;;;5.33;;
209;SDS011;90;48.810;9.120;2023-07-30T11:40:50;5.67;;;5.37;;
209;SDS011;90;48.810;9.120;2023-07-30T11:43:19;5.30;;;5.00;;
209;SDS011;90;48.810;9.120;2023-07-30T11:45:47;5.50;;;5.20;;
209;SDS011;90;48.810;9.120;2023-07-30T11:48:14;5.50;;;5.20;;
209;SDS011;90;48.810;9.120;2023-07-30T11:50:42;5.27;;;4.97;;
209;SDS011;90;48.810;9.120;2023-07-30T11:53:09;4.90;;;4.60;;
209;SDS011;90;48.810;9.120;2023-07-30T11:55:37;7.50;;;5.47;;
209;SDS011;90;48.810;9.120;2023-07-30T11:58:04;5.00;;;4.70;;
209;SDS011;90;48.810;9.120;2023-07-30T12:00:33;4.93;;;4.63;;
209;SDS011;90;48.810;9.120;2023-07-30T12:03:02;5.73;;;4.67;;
209;SDS011;90;48.810;9.120;2023-07-30T12:05:32;5.50;;;5.20;;
209;SDS011;90;48.810;9.120;2023-07-30T12:08:00;4.80;;;4.40;;
209;SDS011;90;48.810;9.120;2023-07-30T12:10:37;4.93;;;4.63;;
209;SDS011;90;48.810;9.120;2023-07-30T12:13:10;7.93;;;4.90;;
209;SDS011;90;48.810;9.120;2023-07-30T12:15:39;5.30;;;5.00;;
209;SDS011;90;48.810;9.120;2023-07-30T12:18:09;4.90;;;4.60;;
209;SDS011;90;48.810;9.120;2023-07-30T12:20:36;5.20;;;4.90;;
209;SDS011;90;48.810;9.120;2023-07-30T12:23:05;6.20;;;4.77;;
209;SDS011;90;48.810;9.120;2023-07-30T12:25:32;14.97;;;4.50;;
209;SDS011;90;48.810;9.120;2023-07-30T12:27:59;4.87;;;4.57;;
209;SDS011;90;48.810;9.120;2023-07-30T12:30:26;6.17;;;5.13;;
209;SDS011;90;48.810;9.120;2023-07-30T12:32:56;5.43;;;4.77;;
209;SDS011;90;48.810;9.120;2023-07-30T12:35:23;4.93;;;4.63;;
209;SDS011;90;48.810;9.120;2023-07-30T12:37:50;5.27;;;4.97;;
209;SDS011;90;48.810;9.120;2023-07-30T12:40:19;4.53;;;4.23;;
209;SDS011;90;48.810;9.120;2023-07-30T12:42:47;5.00;;;4.70;;
209;SDS011;90;48.810;9.120;2023-07-30T12:45:14;5.00;;;4.70;;
209;SDS011;90;48.810;9.120;2023-07-30T12:47:41;5.10;;;4.80;;
209;SDS011;90;48.810;9.120;2023-07-30T12:50:11;5.83;;;4.73;;
209;SDS011;90;48.810;9.120;2023-07-30T12:52:39;4.53;;;4.23;;
209;SDS011;90;48.810;9.120;2023-07-30T12:55:06;5.27;;;4.97;;
209;SDS011;90;48.810;9.120;2023-07-30T12:57:33;4.63;;;4.33;;
209;SDS011;90;48.810;9.120;2023-07-30T13:00:02;5.20;;;4.90;;
209;SDS011;90;48.810;9.120;2023-07-30T13:02:29;4.80;;;4.50;;
209;SDS011;90;48.810;9.120;2023-07-30T13:04:58;5.03;;;4.73;;
209;SDS011;90;48.810;9.120;2023-07-30T13:07:27;4.80;;;4.50;;
209;SDS011;90;48.810;9.120;2023-07-30T13:10:01;5.07;;;4.63;;
209;SDS011;90;48.810;9.120;2023-07-30T13:12:28;5.00;;;4.70;;
209;SDS011;90;48.810;9.120;2023-07-30T13:14:56;5.23;;;4.20;;
209;SDS011;90;48.810;9.120;2023-07-30T13:17:23;4.90;;;4.43;;
209;SDS011;90;48.810;9.120;2023-07-30T13:19:50;4.50;;;4.20;;
209;SDS011;90;48.810;9.120;2023-07-30T13:22:17;6.27;;;4.50;;
209;SDS011;90;48.810;9.120;2023-07-30T13:24:46;7.07;;;5.10;;
209;SDS011;90;48.810;9.120;2023-07-30T13:27:13;5.77;;;4.07;;
209;SDS011;90;48.810;9.120;2023-07-30T13:29:40;4.70;;;4.40;;
209;SDS011;90;48.810;9.120;2023-07-30T13:32:07;8.47;;;4.73;;
209;SDS011;90;48.810;9.120;2023-07-30T13:34:35;4.80;;;4.50;;
209;SDS011;90;48.810;9.120;2023-07-30T13:37:05;5.83;;;5.13;;
209;SDS011;90;48.810;9.120;2023-07-30T13:39:32;4.37;;;3.90;;
209;SDS011;90;48.810;9.120;2023-07-30T13:42:00;4.87;;;4.50;;
209;SDS011;90;48.810;9.120;2023-07-30T13:44:27;4.87;;;4.60;;
209;SDS011;90;48.810;9.120;2023-07-30T13:46:58;4.63;;;4.33;;
209;SDS011;90;48.810;9.120;2023-07-30T13:49:25;4.80;;;4.50;;
209;SDS011;90;48.810;9.120;2023-07-30T13:51:52;4.80;;;4.53;;
209;SDS011;90;48.810;9.120;2023-07-30T13:54:19;4.13;;;3.83;;
209;SDS011;90;48.810;9.120;2023-07-30T13:56:46;4.60;;;4.30;;
209;SDS011;90;48.810;9.120;2023-07-30T13:59:14;7.30;;;4.57;;
209;SDS011;90;48.810;9.120;2023-07-30T14:01:42;4.80;;;4.10;;
209;SDS011;90;48.810;9.120;2023-07-30T14:04:09;5.30;;;4.90;;
209;SDS011;90;48.810;9.120;2023-07-30T14:06:36;7.97;;;4.60;;
209;SDS011;90;48.810;9.120;2023-07-30T14:09:03;4.80;;;4.50;;
209;SDS011;90;48.810;9.120;2023-07-30T14:11:30;5.90;;;5.00;;
209;SDS011;90;48.810;9.120;2023-07-30T14:13:57;6.07;;;4.93;;
209;SDS011;90;48.810;9.120;2023-07-30T14:16:26;4.87;;;4.57;;
209;SDS011;90;48.810;9.120;2023-07-30T14:18:53;4.00;;;3.80;;
209;SDS011;90;48.810;9.120;2023-07-30T14:21:20;7.13;;;4.27;;
209;SDS011;90;48.810;9.120;2023-07-30T14:23:47;4.50;;;4.00;;
209;SDS011;90;48.810;9.120;2023-07-30T14:26:15;4.70;;;4.40;;
209;SDS011;90;48.810;9.120;2023-07-30T14:28:42;4.73;;;4.43;;
209;SDS011;90;48.810;9.120;2023-07-30T14:31:10;5.73;;;4.50;;
209;SDS011;90;48.810;9.120;2023-07-30T14:33:40;4.60;;;4.30;;
209;SDS011;90;48.810;9.120;2023-07-30T14:36:07;8.53;;;4.27;;
209;SDS011;90;48.810;9.120;2023-07-30T14:38:36;4.63;;;4.33;;
209;SDS011;90;48.810;9.120;2023-07-30T14:41:03;4.90;;;4.60;;
209;SDS011;90;48.810;9.120;2023-07-30T14:43:31;4.80;;;4.30;;
209;SDS011;90;48.810;9.120;2023-07-30T14:45:58;4.70;;;4.40;;
209;SDS011;90;48.810;9.120;2023-07-30T14:48:25;5.40;;;4.50;;
209;SDS011;90;48.810;9.120;2023-07-30T14:50:54;4.47;;;4.17;;
209;SDS011;90;48.810;9.120;2023-07-30T14:53:22;4.70;;;4.40;;
209;SDS011;90;48.810;9.120;2023-07-30T14:55:49;4.30;;;3.87;;
209;SDS011;90;48.810;9.120;2023-07-30T14:58:16;4.40;;;4.10;;
209;SDS011;90;48.810;9.120;2023-07-30T15:00:43;11.77;;;4.83;;
209;SDS011;90;48.810;9.120;2023-07-30T15:03:10;5.90;;;4.33;;
209;SDS011;90;48.810;9.120;2023-07-30T15:05:37;8.43;;;4.20;;
209;SDS011;90;48.810;9.120;2023-07-30T15:08:06;4.53;;;3.83;;
209;SDS011;90;48.810;9.120;2023-07-30T15:10:33;6.03;;;4.13;;
209;SDS011;90;48.810;9.120;2023-07-30T15:13:00;4.37;;;4.10;;
209;SDS011;90;48.810;9.120;2023-07-30T15:15:27;3.63;;;3.42;;
209;SDS011;90;48.810;9.120;2023-07-30T15:17:54;4.53;;;4.23;;
209;SDS011;90;48.810;9.120;2023-07-30T15:20:22;4.13;;;3.93;;
209;SDS011;90;48.810;9.120;2023-07-30T15:22:49;4.33;;;4.07;;
209;SDS011;90;48.810;9.120;2023-07-30T15:25:17;3.77;;;3.53;;
209;SDS011;90;48.810;9.120;2023-07-30T15:27:46;4.30;;;4.00;;
209;SDS011;90;48.810;9.120;2023-07-30T15:30:14;4.37;;;4.07;;
209;SDS011;90;48.810;9.120;2023-07-30T15:32:41;4.93;;;3.30;;
209;SDS011;90;48.810;9.120;2023-07-30T15:35:11;4.50;;;4.20;;
209;SDS011;90;48.810;9.120;2023-07-30T15:37:38;3.53;;;3.33;;
209;SDS011;90;48.810;9.120;2023-07-30T15:40:06;5.70;;;4.00;;
209;SDS011;90;48.810;9.120;2023-07-30T15:42:34;3.80;;;3.60;;
209;SDS011;90;48.810;9.120;2023-07-30T15:45:02;4.77;;;3.70;;
209;SDS011;90;48.810;9.120;2023-07-30T15:47:29;3.80;;;3.60;;
209;SDS011;90;48.810;9.120;2023-07-30T15:49:59;3.90;;;3.50;;
209;SDS011;90;48.810;9.120;2023-07-30T15:52:26;4.87;;;4.57;;
209;SDS011;90;48.810;9.120;2023-07-30T15:54:53;4.17;;;3.93;;
209;SDS011;90;48.810;9.120;2023-07-30T15:57:20;4.10;;;3.50;;
209;SDS011;90;48.810;9.120;2023-07-30T15:59:48;5.40;;;4.07;;
209;SDS011;90;48.810;9.120;2023-07-30T16:02:16;4.47;;;4.10;;
209;SDS011;90;48.810;9.120;2023-07-30T16:04:43;4.77;;;3.63;;